sensor_id;sensor_type;location;lat;lon;timestamp;P1;durP1;ratioP1;P2;durP2;ratioP2
66095;SDS011;53861;53.422;14.530;2023-09-18T00:01:01;25.08;;;13.43;;
66095;SDS011;53861;53.422;14.530;2023-09-18T00:03:30;29.33;;;14.05;;
66095;SDS011;53861;53.422;14.530;2023-09-18T00:05:58;27.08;;;14.00;;
66095;SDS011;53861;53.422;14.530;2023-09-18T00:08:27;31.50;;;16.10;;
66095;SDS011;53861;53.422;14.530;2023-09-18T00:10:54;31.08;;;16.00;;
66095;SDS011;53861;53.422;14.530;2023-09-18T00:13:22;28.05;;;14.32;;
66095;SDS011;53861;53.422;14.530;2023-09-18T00:15:54;32.65;;;13.70;;
66095;SDS011;53861;53.422;14.530;2023-09-18T00:18:25;27.83;;;14.25;;
66095;SDS011;53861;53.422;14.530;2023-09-18T00:20:53;24.50;;;13.98;;
66095;SDS011;53861;53.422;14.530;2023-09-18T00:23:20;29.08;;;14.07;;
66095;SDS011;53861;53.422;14.530;2023-09-18T00:25:49;26.60;;;13.98;;
66095;SDS011;53861;53.422;14.530;2023-09-18T00:28:16;25.70;;;13.73;;
66095;SDS011;53861;53.422;14.530;2023-09-18T00:30:46;27.15;;;14.10;;
66095;SDS011;53861;53.422;14.530;2023-09-18T00:33:15;25.55;;;13.88;;
66095;SDS011;53861;53.422;14.530;2023-09-18T00:35:45;28.95;;;13.95;;
66095;SDS011;53861;53.422;14.530;2023-09-18T00:38:13;28.42;;;13.60;;
66095;SDS011;53861;53.422;14.530;2023-09-18T00:40:40;26.25;;;14.13;;
66095;SDS011;53861;53.422;14.530;2023-09-18T00:43:09;32.30;;;14.00;;
66095;SDS011;53861;53.422;14.530;2023-09-18T00:45:38;27.75;;;13.95;;
66095;SDS011;53861;53.422;14.530;2023-09-18T00:48:08;27.58;;;14.30;;
66095;SDS011;53861;53.422;14.530;2023-09-18T00:50:36;24.83;;;13.65;;
66095;SDS011;53861;53.422;14.530;2023-09-18T00:53:06;26.30;;;13.60;;
66095;SDS011;53861;53.422;14.530;2023-09-18T00:55:35;24.98;;;13.52;;
66095;SDS011;53861;53.422;14.530;2023-09-18T00:58:04;27.23;;;14.07;;
66095;SDS011;53861;53.422;14.530;2023-09-18T01:00:34;29.83;;;13.93;;
66095;SDS011;53861;53.422;14.530;2023-09-18T01:03:04;28.70;;;13.80;;
66095;SDS011;53861;53.422;14.530;2023-09-18T01:05:32;27.73;;;14.10;;
66095;SDS011;53861;53.422;14.530;2023-09-18T01:07:59;29.95;;;14.07;;
66095;SDS011;53861;53.422;14.530;2023-09-18T01:10:28;28.05;;;13.80;;
66095;SDS011;53861;53.422;14.530;2023-09-18T01:13:04;26.13;;;14.13;;
66095;SDS011;53861;53.422;14.530;2023-09-18T01:15:42;25.10;;;14.13;;
66095;SDS011;53861;53.422;14.530;2023-09-18T01:18:14;27.48;;;14.32;;
66095;SDS011;53861;53.422;14.530;2023-09-18T01:20:44;29.95;;;14.25;;
66095;SDS011;53861;53.422;14.530;2023-09-18T01:23:12;27.63;;;14.27;;
66095;SDS011;53861;53.422;14.530;2023-09-18T01:25:40;33.05;;;15.07;;
66095;SDS011;53861;53.422;14.530;2023-09-18T01:28:07;28.17;;;14.13;;
66095;SDS011;53861;53.422;14.530;2023-09-18T01:30:34;26.67;;;14.45;;
66095;SDS011;53861;53.422;14.530;2023-09-18T01:33:04;28.35;;;14.32;;
66095;SDS011;53861;53.422;14.530;2023-09-18T01:35:31;29.85;;;14.50;;
66095;SDS011;53861;53.422;14.530;2023-09-18T01:38:01;29.55;;;14.07;;
66095;SDS011;53861;53.422;14.530;2023-09-18T01:40:30;27.50;;;14.73;;
66095;SDS011;53861;53.422;14.530;2023-09-18T01:42:58;32.20;;;14.48;;
66095;SDS011;53861;53.422;14.530;2023-09-18T01:45:25;28.77;;;14.93;;
66095;SDS011;53861;53.422;14.530;2023-09-18T01:47:53;28.27;;;14.30;;
66095;SDS011;53861;53.422;14.530;2023-09-18T01:50:20;28.73;;;15.13;;
66095;SDS011;53861;53.422;14.530;2023-09-18T01:52:52;35.63;;;15.35;;
66095;SDS011;53861;53.422;14.530;2023-09-18T01:55:20;28.88;;;14.10;;
66095;SDS011;53861;53.422;14.530;2023-09-18T01:57:48;25.92;;;14.27;;
66095;SDS011;53861;53.422;14.530;2023-09-18T02:00:16;31.05;;;14.90;;
66095;SDS011;53861;53.422;14.530;2023-09-18T02:02:47;27.15;;;14.65;;
66095;SDS011;53861;53.422;14.530;2023-09-18T02:05:15;27.73;;;14.65;;
66095;SDS011;53861;53.422;14.530;2023-09-18T02:07:42;31.27;;;14.98;;
66095;SDS011;53861;53.422;14.530;2023-09-18T02:10:09;30.25;;;14.70;;
66095;SDS011;53861;53.422;14.530;2023-09-18T02:12:38;30.83;;;15.38;;
66095;SDS011;53861;53.422;14.530;2023-09-18T02:15:07;31.30;;;14.73;;
66095;SDS011;53861;53.422;14.530;2023-09-18T02:17:36;27.85;;;14.55;;
66095;SDS011;53861;53.422;14.530;2023-09-18T02:20:04;29.10;;;14.50;;
66095;SDS011;53861;53.422;14.530;2023-09-18T02:22:37;29.85;;;15.05;;
66095;SDS011;53861;53.422;14.530;2023-09-18T02:25:05;31.55;;;15.65;;
66095;SDS011;53861;53.422;14.530;2023-09-18T02:27:34;31.92;;;15.50;;
66095;SDS011;53861;53.422;14.530;2023-09-18T02:30:01;32.85;;;15.25;;
66095;SDS011;53861;53.422;14.530;2023-09-18T02:32:30;31.63;;;16.13;;
66095;SDS011;53861;53.422;14.530;2023-09-18T02:34:58;32.75;;;16.00;;
66095;SDS011;53861;53.422;14.530;2023-09-18T02:37:25;36.33;;;18.23;;
66095;SDS011;53861;53.422;14.530;2023-09-18T02:39:54;32.47;;;16.52;;
66095;SDS011;53861;53.422;14.530;2023-09-18T02:42:21;32.63;;;16.42;;
66095;SDS011;53861;53.422;14.530;2023-09-18T02:44:49;32.60;;;16.17;;
66095;SDS011;53861;53.422;14.530;2023-09-18T02:47:16;33.17;;;17.23;;
66095;SDS011;53861;53.422;14.530;2023-09-18T02:49:45;35.53;;;16.98;;
66095;SDS011;53861;53.422;14.530;2023-09-18T02:52:12;34.85;;;16.88;;
66095;SDS011;53861;53.422;14.530;2023-09-18T02:54:40;39.30;;;16.48;;
66095;SDS011;53861;53.422;14.530;2023-09-18T02:57:07;36.33;;;17.67;;
66095;SDS011;53861;53.422;14.530;2023-09-18T02:59:36;36.40;;;16.63;;
66095;SDS011;53861;53.422;14.530;2023-09-18T03:02:06;35.50;;;16.53;;
66095;SDS011;53861;53.422;14.530;2023-09-18T03:04:34;35.33;;;16.42;;
66095;SDS011;53861;53.422;14.530;2023-09-18T03:07:03;32.92;;;16.58;;
66095;SDS011;53861;53.422;14.530;2023-09-18T03:09:30;33.28;;;16.45;;
66095;SDS011;53861;53.422;14.530;2023-09-18T03:11:58;38.33;;;16.27;;
66095;SDS011;53861;53.422;14.530;2023-09-18T03:14:25;35.33;;;17.55;;
66095;SDS011;53861;53.422;14.530;2023-09-18T03:16:53;33.72;;;18.33;;
66095;SDS011;53861;53.422;14.530;2023-09-18T03:19:23;34.42;;;17.73;;
66095;SDS011;53861;53.422;14.530;2023-09-18T03:21:52;33.15;;;17.40;;
66095;SDS011;53861;53.422;14.530;2023-09-18T03:24:21;37.08;;;18.23;;
66095;SDS011;53861;53.422;14.530;2023-09-18T03:26:48;35.55;;;18.45;;
66095;SDS011;53861;53.422;14.530;2023-09-18T03:29:16;38.75;;;17.95;;
66095;SDS011;53861;53.422;14.530;2023-09-18T03:31:43;37.78;;;18.75;;
66095;SDS011;53861;53.422;14.530;2023-09-18T03:34:10;39.70;;;19.10;;
66095;SDS011;53861;53.422;14.530;2023-09-18T03:36:37;36.90;;;17.92;;
66095;SDS011;53861;53.422;14.530;2023-09-18T03:39:05;39.50;;;18.60;;
66095;SDS011;53861;53.422;14.530;2023-09-18T03:41:35;38.47;;;18.42;;
66095;SDS011;53861;53.422;14.530;2023-09-18T03:44:04;45.03;;;18.88;;
66095;SDS011;53861;53.422;14.530;2023-09-18T03:46:31;43.42;;;19.67;;
66095;SDS011;53861;53.422;14.530;2023-09-18T03:48:58;41.13;;;19.52;;
66095;SDS011;53861;53.422;14.530;2023-09-18T03:51:27;38.50;;;19.08;;
66095;SDS011;53861;53.422;14.530;2023-09-18T03:53:55;41.40;;;18.98;;
66095;SDS011;53861;53.422;14.530;2023-09-18T03:56:22;43.38;;;19.65;;
66095;SDS011;53861;53.422;14.530;2023-09-18T03:58:51;41.90;;;19.95;;
66095;SDS011;53861;53.422;14.530;2023-09-18T04:01:18;38.20;;;18.75;;
66095;SDS011;53861;53.422;14.530;2023-09-18T04:03:45;41.90;;;19.42;;
66095;SDS011;53861;53.422;14.530;2023-09-18T04:06:13;37.88;;;19.92;;
66095;SDS011;53861;53.422;14.530;2023-09-18T04:08:40;47.67;;;20.83;;
66095;SDS011;53861;53.422;14.530;2023-09-18T04:11:07;43.72;;;21.02;;
66095;SDS011;53861;53.422;14.530;2023-09-18T04:13:36;49.10;;;21.48;;
66095;SDS011;53861;53.422;14.530;2023-09-18T04:16:05;46.38;;;21.13;;
66095;SDS011;53861;53.422;14.530;2023-09-18T04:18:33;44.47;;;21.15;;
66095;SDS011;53861;53.422;14.530;2023-09-18T04:21:01;48.40;;;21.42;;
66095;SDS011;53861;53.422;14.530;2023-09-18T04:23:29;44.00;;;21.08;;
66095;SDS011;53861;53.422;14.530;2023-09-18T04:25:56;44.38;;;21.75;;
66095;SDS011;53861;53.422;14.530;2023-09-18T04:28:23;48.67;;;20.98;;
66095;SDS011;53861;53.422;14.530;2023-09-18T04:30:51;44.70;;;22.50;;
66095;SDS011;53861;53.422;14.530;2023-09-18T04:33:19;50.92;;;21.27;;
66095;SDS011;53861;53.422;14.530;2023-09-18T04:35:47;50.25;;;21.65;;
66095;SDS011;53861;53.422;14.530;2023-09-18T04:38:15;51.60;;;22.55;;
66095;SDS011;53861;53.422;14.530;2023-09-18T04:40:44;46.15;;;22.17;;
66095;SDS011;53861;53.422;14.530;2023-09-18T04:43:11;48.45;;;22.02;;
66095;SDS011;53861;53.422;14.530;2023-09-18T04:45:38;59.42;;;23.67;;
66095;SDS011;53861;53.422;14.530;2023-09-18T04:48:06;50.70;;;23.33;;
66095;SDS011;53861;53.422;14.530;2023-09-18T04:50:35;60.03;;;24.80;;
66095;SDS011;53861;53.422;14.530;2023-09-18T04:53:02;70.38;;;29.80;;
66095;SDS011;53861;53.422;14.530;2023-09-18T04:55:30;48.97;;;22.73;;
66095;SDS011;53861;53.422;14.530;2023-09-18T04:57:57;50.70;;;23.92;;
66095;SDS011;53861;53.422;14.530;2023-09-18T05:00:25;52.72;;;22.90;;
66095;SDS011;53861;53.422;14.530;2023-09-18T05:02:52;53.05;;;23.75;;
66095;SDS011;53861;53.422;14.530;2023-09-18T05:05:19;59.83;;;23.25;;
66095;SDS011;53861;53.422;14.530;2023-09-18T05:07:48;52.15;;;23.90;;
66095;SDS011;53861;53.422;14.530;2023-09-18T05:10:16;63.25;;;24.35;;
66095;SDS011;53861;53.422;14.530;2023-09-18T05:12:43;56.63;;;24.55;;
66095;SDS011;53861;53.422;14.530;2023-09-18T05:15:11;57.53;;;25.58;;
66095;SDS011;53861;53.422;14.530;2023-09-18T05:17:40;58.90;;;24.35;;
66095;SDS011;53861;53.422;14.530;2023-09-18T05:20:09;61.25;;;25.70;;
66095;SDS011;53861;53.422;14.530;2023-09-18T05:22:39;64.38;;;26.83;;
66095;SDS011;53861;53.422;14.530;2023-09-18T05:25:09;57.67;;;25.15;;
66095;SDS011;53861;53.422;14.530;2023-09-18T05:27:36;62.25;;;25.27;;
66095;SDS011;53861;53.422;14.530;2023-09-18T05:30:10;55.13;;;23.27;;
66095;SDS011;53861;53.422;14.530;2023-09-18T05:32:41;56.63;;;24.70;;
66095;SDS011;53861;53.422;14.530;2023-09-18T05:35:09;57.58;;;24.15;;
66095;SDS011;53861;53.422;14.530;2023-09-18T05:37:38;56.15;;;24.42;;
66095;SDS011;53861;53.422;14.530;2023-09-18T05:40:07;68.60;;;29.42;;
66095;SDS011;53861;53.422;14.530;2023-09-18T05:42:37;57.85;;;24.95;;
66095;SDS011;53861;53.422;14.530;2023-09-18T05:45:05;53.08;;;24.25;;
66095;SDS011;53861;53.422;14.530;2023-09-18T05:47:36;59.25;;;24.33;;
66095;SDS011;53861;53.422;14.530;2023-09-18T05:50:04;65.03;;;25.33;;
66095;SDS011;53861;53.422;14.530;2023-09-18T05:52:32;58.28;;;24.23;;
66095;SDS011;53861;53.422;14.530;2023-09-18T05:54:59;62.47;;;24.85;;
66095;SDS011;53861;53.422;14.530;2023-09-18T05:57:28;55.85;;;23.38;;
66095;SDS011;53861;53.422;14.530;2023-09-18T05:59:55;48.72;;;21.48;;
66095;SDS011;53861;53.422;14.530;2023-09-18T06:02:23;49.80;;;22.17;;
66095;SDS011;53861;53.422;14.530;2023-09-18T06:04:54;45.35;;;20.85;;
66095;SDS011;53861;53.422;14.530;2023-09-18T06:07:23;46.30;;;20.60;;
66095;SDS011;53861;53.422;14.530;2023-09-18T06:09:51;50.70;;;20.75;;
66095;SDS011;53861;53.422;14.530;2023-09-18T06:12:18;54.80;;;23.08;;
66095;SDS011;53861;53.422;14.530;2023-09-18T06:14:48;53.28;;;21.98;;
66095;SDS011;53861;53.422;14.530;2023-09-18T06:17:15;56.10;;;22.80;;
66095;SDS011;53861;53.422;14.530;2023-09-18T06:19:43;51.03;;;22.58;;
66095;SDS011;53861;53.422;14.530;2023-09-18T06:22:11;53.55;;;23.90;;
66095;SDS011;53861;53.422;14.530;2023-09-18T06:24:39;55.25;;;22.23;;
66095;SDS011;53861;53.422;14.530;2023-09-18T06:27:07;48.05;;;19.60;;
66095;SDS011;53861;53.422;14.530;2023-09-18T06:29:34;43.30;;;19.40;;
66095;SDS011;53861;53.422;14.530;2023-09-18T06:32:05;43.97;;;19.95;;
66095;SDS011;53861;53.422;14.530;2023-09-18T06:34:33;44.80;;;19.25;;
66095;SDS011;53861;53.422;14.530;2023-09-18T06:37:00;49.58;;;19.10;;
66095;SDS011;53861;53.422;14.530;2023-09-18T06:39:29;52.30;;;22.02;;
66095;SDS011;53861;53.422;14.530;2023-09-18T06:41:56;47.60;;;19.75;;
66095;SDS011;53861;53.422;14.530;2023-09-18T06:44:24;49.20;;;20.08;;
66095;SDS011;53861;53.422;14.530;2023-09-18T06:46:51;50.13;;;19.27;;
66095;SDS011;53861;53.422;14.530;2023-09-18T06:49:20;51.85;;;20.95;;
66095;SDS011;53861;53.422;14.530;2023-09-18T06:51:47;40.40;;;20.02;;
66095;SDS011;53861;53.422;14.530;2023-09-18T06:54:15;43.08;;;19.17;;
66095;SDS011;53861;53.422;14.530;2023-09-18T06:56:42;43.72;;;20.58;;
66095;SDS011;53861;53.422;14.530;2023-09-18T06:59:10;43.47;;;19.63;;
66095;SDS011;53861;53.422;14.530;2023-09-18T07:01:38;42.15;;;20.33;;
66095;SDS011;53861;53.422;14.530;2023-09-18T07:04:06;42.80;;;21.73;;
66095;SDS011;53861;53.422;14.530;2023-09-18T07:06:35;37.05;;;19.52;;
66095;SDS011;53861;53.422;14.530;2023-09-18T07:09:02;46.45;;;22.10;;
66095;SDS011;53861;53.422;14.530;2023-09-18T07:11:32;40.80;;;18.52;;
66095;SDS011;53861;53.422;14.530;2023-09-18T07:14:00;42.58;;;18.58;;
66095;SDS011;53861;53.422;14.530;2023-09-18T07:16:28;42.30;;;18.20;;
66095;SDS011;53861;53.422;14.530;2023-09-18T07:18:55;48.10;;;18.73;;
66095;SDS011;53861;53.422;14.530;2023-09-18T07:21:24;46.72;;;17.17;;
66095;SDS011;53861;53.422;14.530;2023-09-18T07:23:53;39.65;;;17.20;;
66095;SDS011;53861;53.422;14.530;2023-09-18T07:26:20;39.17;;;17.23;;
66095;SDS011;53861;53.422;14.530;2023-09-18T07:28:48;45.28;;;18.15;;
66095;SDS011;53861;53.422;14.530;2023-09-18T07:31:15;38.15;;;17.63;;
66095;SDS011;53861;53.422;14.530;2023-09-18T07:33:42;35.80;;;17.42;;
66095;SDS011;53861;53.422;14.530;2023-09-18T07:36:09;45.60;;;17.83;;
66095;SDS011;53861;53.422;14.530;2023-09-18T07:38:37;38.50;;;17.83;;
66095;SDS011;53861;53.422;14.530;2023-09-18T07:41:05;37.78;;;17.40;;
66095;SDS011;53861;53.422;14.530;2023-09-18T07:43:33;41.33;;;19.02;;
66095;SDS011;53861;53.422;14.530;2023-09-18T07:46:00;40.78;;;16.90;;
66095;SDS011;53861;53.422;14.530;2023-09-18T07:48:27;36.35;;;19.13;;
66095;SDS011;53861;53.422;14.530;2023-09-18T07:50:55;33.05;;;16.52;;
66095;SDS011;53861;53.422;14.530;2023-09-18T07:53:22;38.55;;;15.95;;
66095;SDS011;53861;53.422;14.530;2023-09-18T07:55:54;38.50;;;17.88;;
66095;SDS011;53861;53.422;14.530;2023-09-18T07:58:24;39.03;;;16.95;;
66095;SDS011;53861;53.422;14.530;2023-09-18T08:00:53;41.28;;;17.40;;
66095;SDS011;53861;53.422;14.530;2023-09-18T08:03:22;41.88;;;15.68;;
66095;SDS011;53861;53.422;14.530;2023-09-18T08:05:50;38.45;;;15.27;;
66095;SDS011;53861;53.422;14.530;2023-09-18T08:08:19;28.63;;;14.20;;
66095;SDS011;53861;53.422;14.530;2023-09-18T08:10:47;42.85;;;15.38;;
66095;SDS011;53861;53.422;14.530;2023-09-18T08:13:15;36.90;;;15.40;;
66095;SDS011;53861;53.422;14.530;2023-09-18T08:15:44;29.65;;;14.52;;
66095;SDS011;53861;53.422;14.530;2023-09-18T08:18:11;33.08;;;14.27;;
66095;SDS011;53861;53.422;14.530;2023-09-18T08:20:40;26.17;;;14.25;;
66095;SDS011;53861;53.422;14.530;2023-09-18T08:23:08;27.60;;;13.45;;
66095;SDS011;53861;53.422;14.530;2023-09-18T08:25:36;26.70;;;13.68;;
66095;SDS011;53861;53.422;14.530;2023-09-18T08:28:03;31.40;;;14.00;;
66095;SDS011;53861;53.422;14.530;2023-09-18T08:30:32;29.98;;;13.75;;
66095;SDS011;53861;53.422;14.530;2023-09-18T08:33:01;37.30;;;14.35;;
66095;SDS011;53861;53.422;14.530;2023-09-18T08:35:28;34.50;;;12.95;;
66095;SDS011;53861;53.422;14.530;2023-09-18T08:37:56;29.48;;;12.75;;
66095;SDS011;53861;53.422;14.530;2023-09-18T08:40:24;30.55;;;12.35;;
66095;SDS011;53861;53.422;14.530;2023-09-18T08:42:52;18.13;;;10.57;;
66095;SDS011;53861;53.422;14.530;2023-09-18T08:45:23;19.67;;;11.20;;
66095;SDS011;53861;53.422;14.530;2023-09-18T08:47:54;18.92;;;11.23;;
66095;SDS011;53861;53.422;14.530;2023-09-18T08:50:23;18.25;;;10.48;;
66095;SDS011;53861;53.422;14.530;2023-09-18T08:52:54;20.58;;;10.60;;
66095;SDS011;53861;53.422;14.530;2023-09-18T08:55:22;19.15;;;10.60;;
66095;SDS011;53861;53.422;14.530;2023-09-18T08:57:51;22.05;;;11.50;;
66095;SDS011;53861;53.422;14.530;2023-09-18T09:00:20;23.75;;;11.38;;
66095;SDS011;53861;53.422;14.530;2023-09-18T09:02:47;20.95;;;10.95;;
66095;SDS011;53861;53.422;14.530;2023-09-18T09:05:17;18.55;;;11.20;;
66095;SDS011;53861;53.422;14.530;2023-09-18T09:07:45;21.13;;;10.75;;
66095;SDS011;53861;53.422;14.530;2023-09-18T09:10:13;18.95;;;11.15;;
66095;SDS011;53861;53.422;14.530;2023-09-18T09:12:46;19.00;;;10.48;;
66095;SDS011;53861;53.422;14.530;2023-09-18T09:15:15;15.45;;;10.38;;
66095;SDS011;53861;53.422;14.530;2023-09-18T09:17:43;19.98;;;10.95;;
66095;SDS011;53861;53.422;14.530;2023-09-18T09:20:11;21.00;;;10.73;;
66095;SDS011;53861;53.422;14.530;2023-09-18T09:22:40;20.55;;;10.77;;
66095;SDS011;53861;53.422;14.530;2023-09-18T09:25:25;19.80;;;11.13;;
66095;SDS011;53861;53.422;14.530;2023-09-18T09:27:54;18.05;;;10.68;;
66095;SDS011;53861;53.422;14.530;2023-09-18T09:30:22;17.40;;;10.68;;
66095;SDS011;53861;53.422;14.530;2023-09-18T09:32:51;20.60;;;10.07;;
66095;SDS011;53861;53.422;14.530;2023-09-18T09:35:21;18.15;;;9.82;;
66095;SDS011;53861;53.422;14.530;2023-09-18T09:37:50;13.55;;;9.52;;
66095;SDS011;53861;53.422;14.530;2023-09-18T09:40:19;15.45;;;9.68;;
66095;SDS011;53861;53.422;14.530;2023-09-18T09:42:48;17.13;;;10.25;;
66095;SDS011;53861;53.422;14.530;2023-09-18T09:45:19;14.15;;;9.10;;
66095;SDS011;53861;53.422;14.530;2023-09-18T09:47:47;22.35;;;10.27;;
66095;SDS011;53861;53.422;14.530;2023-09-18T09:50:15;44.65;;;9.90;;
66095;SDS011;53861;53.422;14.530;2023-09-18T09:52:44;16.45;;;9.25;;
66095;SDS011;53861;53.422;14.530;2023-09-18T09:55:21;15.30;;;9.30;;
66095;SDS011;53861;53.422;14.530;2023-09-18T09:57:51;15.82;;;9.38;;
66095;SDS011;53861;53.422;14.530;2023-09-18T10:00:23;14.77;;;8.00;;
66095;SDS011;53861;53.422;14.530;2023-09-18T10:05:24;15.98;;;9.77;;
66095;SDS011;53861;53.422;14.530;2023-09-18T10:07:58;18.20;;;10.17;;
66095;SDS011;53861;53.422;14.530;2023-09-18T10:10:29;21.05;;;9.77;;
66095;SDS011;53861;53.422;14.530;2023-09-18T10:15:35;23.25;;;8.38;;
66095;SDS011;53861;53.422;14.530;2023-09-18T10:18:05;17.60;;;7.57;;
66095;SDS011;53861;53.422;14.530;2023-09-18T10:20:43;15.90;;;8.15;;
66095;SDS011;53861;53.422;14.530;2023-09-18T10:25:50;23.83;;;9.65;;
66095;SDS011;53861;53.422;14.530;2023-09-18T10:28:24;14.57;;;8.10;;
66095;SDS011;53861;53.422;14.530;2023-09-18T10:30:57;25.77;;;8.35;;
66095;SDS011;53861;53.422;14.530;2023-09-18T10:33:25;21.23;;;9.00;;
66095;SDS011;53861;53.422;14.530;2023-09-18T10:35:53;18.73;;;9.82;;
66095;SDS011;53861;53.422;14.530;2023-09-18T10:38:23;14.30;;;7.82;;
66095;SDS011;53861;53.422;14.530;2023-09-18T10:40:52;17.48;;;8.50;;
66095;SDS011;53861;53.422;14.530;2023-09-18T10:43:20;16.88;;;8.35;;
66095;SDS011;53861;53.422;14.530;2023-09-18T10:45:49;15.45;;;8.50;;
66095;SDS011;53861;53.422;14.530;2023-09-18T10:48:18;17.60;;;8.80;;
66095;SDS011;53861;53.422;14.530;2023-09-18T10:50:48;14.45;;;7.20;;
66095;SDS011;53861;53.422;14.530;2023-09-18T10:53:17;22.88;;;9.98;;
66095;SDS011;53861;53.422;14.530;2023-09-18T10:55:46;15.02;;;8.73;;
66095;SDS011;53861;53.422;14.530;2023-09-18T10:58:22;15.70;;;9.00;;
66095;SDS011;53861;53.422;14.530;2023-09-18T11:00:52;15.20;;;8.38;;
66095;SDS011;53861;53.422;14.530;2023-09-18T11:03:22;13.63;;;6.63;;
66095;SDS011;53861;53.422;14.530;2023-09-18T11:06:01;20.05;;;8.95;;
66095;SDS011;53861;53.422;14.530;2023-09-18T11:08:30;16.13;;;8.77;;
66095;SDS011;53861;53.422;14.530;2023-09-18T11:11:02;17.27;;;8.93;;
66095;SDS011;53861;53.422;14.530;2023-09-18T11:13:35;25.05;;;10.10;;
66095;SDS011;53861;53.422;14.530;2023-09-18T11:16:32;16.98;;;8.57;;
66095;SDS011;53861;53.422;14.530;2023-09-18T11:19:10;20.15;;;8.50;;
66095;SDS011;53861;53.422;14.530;2023-09-18T11:21:39;17.33;;;8.45;;
66095;SDS011;53861;53.422;14.530;2023-09-18T11:24:07;13.50;;;7.80;;
66095;SDS011;53861;53.422;14.530;2023-09-18T11:26:37;12.82;;;7.80;;
66095;SDS011;53861;53.422;14.530;2023-09-18T11:29:08;13.70;;;7.60;;
66095;SDS011;53861;53.422;14.530;2023-09-18T11:31:44;16.20;;;8.13;;
66095;SDS011;53861;53.422;14.530;2023-09-18T11:34:19;15.85;;;8.07;;
66095;SDS011;53861;53.422;14.530;2023-09-18T11:36:48;20.77;;;8.65;;
66095;SDS011;53861;53.422;14.530;2023-09-18T11:42:07;17.30;;;8.45;;
66095;SDS011;53861;53.422;14.530;2023-09-18T11:44:35;28.10;;;8.20;;
66095;SDS011;53861;53.422;14.530;2023-09-18T11:47:08;19.05;;;8.15;;
66095;SDS011;53861;53.422;14.530;2023-09-18T11:49:45;16.08;;;8.02;;
66095;SDS011;53861;53.422;14.530;2023-09-18T11:52:16;14.98;;;7.78;;
66095;SDS011;53861;53.422;14.530;2023-09-18T11:54:43;15.85;;;7.50;;
66095;SDS011;53861;53.422;14.530;2023-09-18T11:57:12;20.10;;;8.82;;
66095;SDS011;53861;53.422;14.530;2023-09-18T11:59:40;18.38;;;8.63;;
66095;SDS011;53861;53.422;14.530;2023-09-18T12:02:10;26.75;;;9.32;;
66095;SDS011;53861;53.422;14.530;2023-09-18T12:04:46;21.10;;;9.02;;
66095;SDS011;53861;53.422;14.530;2023-09-18T12:07:13;18.98;;;8.13;;
66095;SDS011;53861;53.422;14.530;2023-09-18T12:09:41;17.50;;;7.85;;
66095;SDS011;53861;53.422;14.530;2023-09-18T12:12:08;18.90;;;8.25;;
66095;SDS011;53861;53.422;14.530;2023-09-18T12:14:39;17.38;;;7.85;;
66095;SDS011;53861;53.422;14.530;2023-09-18T12:17:07;17.70;;;8.00;;
66095;SDS011;53861;53.422;14.530;2023-09-18T12:19:39;15.43;;;7.25;;
66095;SDS011;53861;53.422;14.530;2023-09-18T12:22:25;16.13;;;6.97;;
66095;SDS011;53861;53.422;14.530;2023-09-18T12:24:52;18.67;;;6.73;;
66095;SDS011;53861;53.422;14.530;2023-09-18T12:27:20;13.27;;;6.40;;
66095;SDS011;53861;53.422;14.530;2023-09-18T12:29:52;13.10;;;6.68;;
66095;SDS011;53861;53.422;14.530;2023-09-18T12:32:20;13.10;;;6.78;;
66095;SDS011;53861;53.422;14.530;2023-09-18T12:34:49;9.48;;;6.72;;
66095;SDS011;53861;53.422;14.530;2023-09-18T12:37:16;16.52;;;6.68;;
66095;SDS011;53861;53.422;14.530;2023-09-18T12:39:44;17.60;;;6.60;;
66095;SDS011;53861;53.422;14.530;2023-09-18T12:42:11;17.83;;;6.40;;
66095;SDS011;53861;53.422;14.530;2023-09-18T12:44:40;13.57;;;6.57;;
66095;SDS011;53861;53.422;14.530;2023-09-18T12:47:08;21.10;;;7.65;;
66095;SDS011;53861;53.422;14.530;2023-09-18T12:49:37;18.08;;;6.82;;
66095;SDS011;53861;53.422;14.530;2023-09-18T12:52:06;12.93;;;6.40;;
66095;SDS011;53861;53.422;14.530;2023-09-18T12:54:39;28.38;;;8.30;;
66095;SDS011;53861;53.422;14.530;2023-09-18T12:57:08;13.27;;;6.93;;
66095;SDS011;53861;53.422;14.530;2023-09-18T12:59:36;17.13;;;7.72;;
66095;SDS011;53861;53.422;14.530;2023-09-18T13:02:05;21.42;;;7.88;;
66095;SDS011;53861;53.422;14.530;2023-09-18T13:04:34;14.00;;;7.38;;
66095;SDS011;53861;53.422;14.530;2023-09-18T13:07:05;14.85;;;7.40;;
66095;SDS011;53861;53.422;14.530;2023-09-18T13:09:36;19.27;;;7.00;;
66095;SDS011;53861;53.422;14.530;2023-09-18T13:12:04;17.15;;;7.10;;
66095;SDS011;53861;53.422;14.530;2023-09-18T13:17:36;16.52;;;7.63;;
66095;SDS011;53861;53.422;14.530;2023-09-18T13:20:11;19.17;;;6.97;;
66095;SDS011;53861;53.422;14.530;2023-09-18T13:22:41;23.60;;;7.70;;
66095;SDS011;53861;53.422;14.530;2023-09-18T13:25:09;18.52;;;7.40;;
66095;SDS011;53861;53.422;14.530;2023-09-18T13:27:37;15.40;;;6.93;;
66095;SDS011;53861;53.422;14.530;2023-09-18T13:30:06;24.30;;;7.53;;
66095;SDS011;53861;53.422;14.530;2023-09-18T13:32:35;18.45;;;6.93;;
66095;SDS011;53861;53.422;14.530;2023-09-18T13:35:03;18.70;;;7.28;;
66095;SDS011;53861;53.422;14.530;2023-09-18T13:37:32;27.70;;;8.48;;
66095;SDS011;53861;53.422;14.530;2023-09-18T13:40:02;15.73;;;7.53;;
66095;SDS011;53861;53.422;14.530;2023-09-18T13:42:33;17.60;;;7.85;;
66095;SDS011;53861;53.422;14.530;2023-09-18T13:45:00;20.58;;;7.60;;
66095;SDS011;53861;53.422;14.530;2023-09-18T13:47:30;16.30;;;7.15;;
66095;SDS011;53861;53.422;14.530;2023-09-18T13:49:57;20.08;;;8.43;;
66095;SDS011;53861;53.422;14.530;2023-09-18T13:52:25;16.95;;;7.80;;
66095;SDS011;53861;53.422;14.530;2023-09-18T13:54:52;15.48;;;7.63;;
66095;SDS011;53861;53.422;14.530;2023-09-18T13:57:21;23.05;;;8.07;;
66095;SDS011;53861;53.422;14.530;2023-09-18T13:59:49;20.27;;;8.35;;
66095;SDS011;53861;53.422;14.530;2023-09-18T14:02:17;23.15;;;8.55;;
66095;SDS011;53861;53.422;14.530;2023-09-18T14:04:45;15.73;;;7.70;;
66095;SDS011;53861;53.422;14.530;2023-09-18T14:07:12;22.08;;;8.77;;
66095;SDS011;53861;53.422;14.530;2023-09-18T14:09:40;17.30;;;8.23;;
66095;SDS011;53861;53.422;14.530;2023-09-18T14:12:07;19.63;;;8.48;;
66095;SDS011;53861;53.422;14.530;2023-09-18T14:14:38;15.20;;;7.70;;
66095;SDS011;53861;53.422;14.530;2023-09-18T14:17:05;21.80;;;8.60;;
66095;SDS011;53861;53.422;14.530;2023-09-18T14:19:33;17.13;;;8.65;;
66095;SDS011;53861;53.422;14.530;2023-09-18T14:22:03;17.25;;;7.95;;
66095;SDS011;53861;53.422;14.530;2023-09-18T14:24:31;17.42;;;8.57;;
66095;SDS011;53861;53.422;14.530;2023-09-18T14:27:00;20.35;;;8.90;;
66095;SDS011;53861;53.422;14.530;2023-09-18T14:29:28;21.50;;;8.98;;
66095;SDS011;53861;53.422;14.530;2023-09-18T14:32:05;17.48;;;7.93;;
66095;SDS011;53861;53.422;14.530;2023-09-18T14:34:34;18.08;;;8.98;;
66095;SDS011;53861;53.422;14.530;2023-09-18T14:37:03;21.15;;;8.68;;